メインページ
METAR-TAF:

METAR-TAF

空港 :

ブラジリア, ブラジリア連邦直轄区, ブラジル

プレジデント・ジュセリノ・クビシェッキ国際空港

緯度: 15-52S, 経度: 047-56W, 海抜: 1061m

現時点の気象観測

当レポートは25分前の21:00(UTC)に作成
東/北東の風 6kt
気温 30°C
湿度 22%
気圧 1016 hPa
視程: 9000m

METAR: SBBR 202100Z 06006KT 9000 NSC 30/06 Q1016

時間: 19:25 (21:25 UTC)

予報

当レポートは7時間25分前の14:00(UTC)に作成
予報は20日の 18時(UTC)から 21日の 18時(UTC)まで有効
南/南東の風 4kt
視程: 9000m
21日の 06時(UTC)から 21日の 08時(UTC)まで徐々に
の風 5kt
21日の 12時(UTC)から 21日の 14時(UTC)まで徐々に
南/南東の風 10kt

TAF: SBBR 201400Z 2018/2118 14009KT 9000 NSC TX31/2018Z TN18/2109Z BEC MG 2022/2024 16004KT BECMG 2106/2108 08005KT BECMG 2112/2114 15010KT RMK PEC

4,000以上の空港の気象観測と天気予報(METAR報とTAF報)

利用可能な観測所は地図上に黄色い丸と赤い丸で示す。

丸の上にカーソルを重ねると観測所名を参照できる。

次にクリックすると気象観測と天気予報を参照できる。

マップの切り替え:黒色「×」印の緑ボタンをクリックして拡大、「-」印の緑ボタンをクリックして縮小、緑色の三角印をクリックして隣りの地図に切り替え


METAR-TAF: